KMVL

Morrisville-Stowe State Airport

Morrisville, Vermont, USA
METAR KMVL 260254Z AUTO 21004KT 10SM OVC026 02/M01 A2995 RMK AO2 SLP150 T00171006 56004
Observed Flight Rules
Feb-26 @ 02:54 UTC (29 minutes ago) Marginal Visual Flight Rules
Wind Visibility Clouds
210° at 4 knots 10 miles
  • Overcast at 2,600' AGL
Temperatures Readings
Current 2°C / 36°F
Dewpoint -1°C / 30°F
Humidity 81%
Altimeter 29.95" Hg
Pressure 1015 hPa
Elevation 234
METAR KMVL 260254Z AUTO 21004KT 10SM OVC026 02/M01 A2995 RMK AO2 SLP150 T00171006 56004
Observed Flight Rules
Feb-26 @ 02:54 UTC
(29 minutes ago)
MVFR
Wind Visibility
210° at 4 knots 10 miles
Clouds
  • Overcast at 2,600' AGL
Temperature Dewpoint
2°C / 36°F -1°C / 30°F
Humidity Altimeter Pressure
81% 29.95" Hg 1015 hPa